PWSweather.com
Personal Weather Stations
Station Observations
WATERF01
WaterfordIE

WaterfordIE

Lat: 52.2412507, Lon: -7.1414691

Elevation: 65

Station Type: Davis Vantage Vue

www.waterfordweather.com

High Low Average
Temperature 52.5°F11.4°C 40.0°F4.4°C 45.5°F7.5°C
Dew Point 51.5°F10.8°C 37.6°F3.1°C 42.5°F5.8°C
Winds 15.0 mph 24.1 kmh Calm Calm 6.0 mph W9.7 kmh W
Wind Gusts 27.6 mph44.4 kmh -- 12.0 mph19.3 kmh
Humidity 97% 83% 89%
Pressure 29.41 in995.9 mb 29.13 in986.5 mb -
Precipitation 0.08 in2.0 mm - -
Hour Temp Dew Point Humidity Winds Wind Gusts Pressure Precip Precip Rate Daily Precip Total
12:00 AM 52.1°F11.2°C 51.3°F10.7°C 97% 13.8 mph W22.2 kmh W 27.6 mph44.4 kmh 29.14 in986.8 mb - 0.00 in0.0 mm 0.00 in0.0 mm
12:10 AM 52.1°F11.2°C 51.3°F10.7°C 97% 15.0 mph W24.1 kmh W 25.3 mph40.7 kmh 29.13 in986.5 mb - 0.00 in0.0 mm 0.00 in0.0 mm
12:20 AM 52.3°F11.3°C 51.5°F10.8°C 97% 12.7 mph WSW20.4 kmh WSW 20.7 mph33.3 kmh 29.14 in986.8 mb - 0.00 in0.0 mm 0.00 in0.0 mm
12:30 AM 52.3°F11.3°C 51.5°F10.8°C 97% 15.0 mph W24.1 kmh W 21.9 mph35.2 kmh 29.14 in986.8 mb - 0.00 in0.0 mm 0.00 in0.0 mm
12:40 AM 52.0°F11.1°C 51.2°F10.7°C 97% 11.5 mph W18.5 kmh W 20.7 mph33.3 kmh 29.14 in986.8 mb - 0.00 in0.0 mm 0.00 in0.0 mm
12:50 AM 52.1°F11.2°C 51.0°F10.6°C 96% 15.0 mph WSW24.1 kmh WSW 21.9 mph35.2 kmh 29.14 in986.8 mb - 0.00 in0.0 mm 0.00 in0.0 mm
01:00 AM 52.2°F11.2°C 51.1°F10.6°C 96% 15.0 mph W24.1 kmh W 25.3 mph40.7 kmh 29.14 in986.8 mb - 0.00 in0.0 mm 0.00 in0.0 mm
01:10 AM 52.3°F11.3°C 50.6°F10.3°C 94% 10.4 mph W16.7 kmh W 19.6 mph31.5 kmh 29.14 in986.8 mb - 0.00 in0.0 mm 0.00 in0.0 mm
01:20 AM 52.5°F11.4°C 50.5°F10.3°C 93% 10.4 mph WNW16.7 kmh WNW 23.0 mph37.0 kmh 29.15 in987.1 mb - 0.00 in0.0 mm 0.00 in0.0 mm
01:30 AM 52.4°F11.3°C 50.4°F10.2°C 93% 15.0 mph WSW24.1 kmh WSW 27.6 mph44.4 kmh 29.15 in987.1 mb - 0.00 in0.0 mm 0.00 in0.0 mm
01:40 AM 52.2°F11.2°C 49.6°F9.8°C 91% 11.5 mph W18.5 kmh W 18.4 mph29.6 kmh 29.15 in987.1 mb - 0.00 in0.0 mm 0.00 in0.0 mm
01:50 AM 51.9°F11.1°C 47.8°F8.8°C 86% 12.7 mph W20.4 kmh W 19.6 mph31.5 kmh 29.14 in986.8 mb - 0.00 in0.0 mm 0.00 in0.0 mm
02:00 AM 51.6°F10.9°C 47.2°F8.4°C 85% 12.7 mph W20.4 kmh W 18.4 mph29.6 kmh 29.15 in987.1 mb - 0.00 in0.0 mm 0.00 in0.0 mm
02:10 AM 51.3°F10.7°C 48.2°F9.0°C 89% 8.1 mph W13.0 kmh W 13.8 mph22.2 kmh 29.16 in987.5 mb - 0.00 in0.0 mm 0.00 in0.0 mm
02:20 AM 51.0°F10.6°C 47.9°F8.8°C 89% 11.5 mph WSW18.5 kmh WSW 21.9 mph35.2 kmh 29.15 in987.1 mb - 0.00 in0.0 mm 0.00 in0.0 mm
02:30 AM 50.8°F10.4°C 47.1°F8.4°C 87% 15.0 mph W24.1 kmh W 26.5 mph42.6 kmh 29.16 in987.5 mb - 0.00 in0.0 mm 0.00 in0.0 mm
02:40 AM 50.5°F10.3°C 46.4°F8.0°C 86% 10.4 mph W16.7 kmh W 19.6 mph31.5 kmh 29.16 in987.5 mb - 0.00 in0.0 mm 0.00 in0.0 mm
02:50 AM 49.9°F9.9°C 45.9°F7.7°C 86% 9.2 mph WSW14.8 kmh WSW 16.1 mph25.9 kmh 29.16 in987.5 mb - 0.00 in0.0 mm 0.00 in0.0 mm
03:00 AM 49.5°F9.7°C 45.5°F7.5°C 86% 8.1 mph WSW13.0 kmh WSW 13.8 mph22.2 kmh 29.17 in987.8 mb - 0.00 in0.0 mm 0.00 in0.0 mm
03:10 AM 49.1°F9.5°C 45.1°F7.3°C 86% 10.4 mph WSW16.7 kmh WSW 13.8 mph22.2 kmh 29.18 in988.1 mb - 0.00 in0.0 mm 0.00 in0.0 mm
03:20 AM 48.8°F9.3°C 44.2°F6.8°C 84% 12.7 mph W20.4 kmh W 16.1 mph25.9 kmh 29.18 in988.1 mb - 0.00 in0.0 mm 0.00 in0.0 mm
03:30 AM 48.7°F9.3°C 44.1°F6.7°C 84% 6.9 mph W11.1 kmh W 13.8 mph22.2 kmh 29.19 in988.5 mb - 0.00 in0.0 mm 0.00 in0.0 mm
03:40 AM 48.4°F9.1°C 43.8°F6.6°C 84% 5.8 mph W9.3 kmh W 11.5 mph18.5 kmh 29.20 in988.8 mb - 0.00 in0.0 mm 0.00 in0.0 mm
03:50 AM 48.0°F8.9°C 43.1°F6.2°C 83% 6.9 mph WNW11.1 kmh WNW 9.2 mph14.8 kmh 29.20 in988.8 mb - 0.00 in0.0 mm 0.00 in0.0 mm
04:00 AM 47.7°F8.7°C 42.8°F6.0°C 83% 8.1 mph W13.0 kmh W 15.0 mph24.1 kmh 29.20 in988.8 mb - 0.00 in0.0 mm 0.00 in0.0 mm
04:10 AM 47.4°F8.6°C 42.8°F6.0°C 84% 6.9 mph W11.1 kmh W 15.0 mph24.1 kmh 29.20 in988.8 mb - 0.00 in0.0 mm 0.00 in0.0 mm
04:20 AM 47.1°F8.4°C 42.5°F5.8°C 84% 10.4 mph SW16.7 kmh SW 19.6 mph31.5 kmh 29.20 in988.8 mb - 0.00 in0.0 mm 0.00 in0.0 mm
04:30 AM 47.0°F8.3°C 42.7°F5.9°C 85% 6.9 mph W11.1 kmh W 13.8 mph22.2 kmh 29.20 in988.8 mb - 0.00 in0.0 mm 0.00 in0.0 mm
04:40 AM 46.7°F8.2°C 42.7°F5.9°C 86% 8.1 mph WNW13.0 kmh WNW 13.8 mph22.2 kmh 29.20 in988.8 mb - 0.00 in0.0 mm 0.00 in0.0 mm
04:50 AM 46.7°F8.2°C 43.0°F6.1°C 87% 6.9 mph W11.1 kmh W 11.5 mph18.5 kmh 29.20 in988.8 mb - 0.00 in0.0 mm 0.00 in0.0 mm
05:00 AM 46.4°F8.0°C 42.7°F5.9°C 87% 5.8 mph W9.3 kmh W 12.7 mph20.4 kmh 29.20 in988.8 mb - 0.00 in0.0 mm 0.00 in0.0 mm
05:10 AM 46.2°F7.9°C 42.5°F5.8°C 87% 6.9 mph WSW11.1 kmh WSW 11.5 mph18.5 kmh 29.20 in988.8 mb - 0.00 in0.0 mm 0.00 in0.0 mm
05:20 AM 46.1°F7.8°C 42.4°F5.8°C 87% 6.9 mph W11.1 kmh W 11.5 mph18.5 kmh 29.20 in988.8 mb - 0.00 in0.0 mm 0.00 in0.0 mm
05:30 AM 46.1°F7.8°C 42.4°F5.8°C 87% 6.9 mph W11.1 kmh W 16.1 mph25.9 kmh 29.20 in988.8 mb - 0.00 in0.0 mm 0.00 in0.0 mm
05:40 AM 46.2°F7.9°C 42.3°F5.7°C 86% 9.2 mph W14.8 kmh W 12.7 mph20.4 kmh 29.20 in988.8 mb - 0.00 in0.0 mm 0.00 in0.0 mm
05:50 AM 46.3°F7.9°C 42.4°F5.8°C 86% 4.6 mph WNW7.4 kmh WNW 11.5 mph18.5 kmh 29.21 in989.2 mb - 0.00 in0.0 mm 0.00 in0.0 mm
06:00 AM 46.2°F7.9°C 42.2°F5.7°C 86% 4.6 mph WNW7.4 kmh WNW 8.1 mph13.0 kmh 29.21 in989.2 mb - 0.00 in0.0 mm 0.00 in0.0 mm
06:10 AM 45.8°F7.7°C 41.9°F5.5°C 86% Calm Calm -- 29.22 in989.5 mb - 0.00 in0.0 mm 0.00 in0.0 mm
06:20 AM 45.5°F7.5°C 41.6°F5.3°C 86% Calm Calm -- 29.22 in989.5 mb - 0.00 in0.0 mm 0.00 in0.0 mm
06:30 AM 45.3°F7.4°C 41.7°F5.4°C 87% 1.2 mph WSW1.9 kmh WSW 4.6 mph7.4 kmh 29.22 in989.5 mb - 0.00 in0.0 mm 0.00 in0.0 mm
06:40 AM 45.0°F7.2°C 41.7°F5.4°C 88% 5.8 mph W9.3 kmh W 11.5 mph18.5 kmh 29.22 in989.5 mb - 0.00 in0.0 mm 0.00 in0.0 mm
06:50 AM 45.1°F7.3°C 41.8°F5.4°C 88% 6.9 mph W11.1 kmh W 8.1 mph13.0 kmh 29.22 in989.5 mb - 0.00 in0.0 mm 0.00 in0.0 mm
07:00 AM 44.8°F7.1°C 41.4°F5.2°C 88% 4.6 mph WSW7.4 kmh WSW 8.1 mph13.0 kmh 29.22 in989.5 mb - 0.00 in0.0 mm 0.00 in0.0 mm
07:10 AM 44.5°F6.9°C 41.5°F5.3°C 89% 5.8 mph W9.3 kmh W 11.5 mph18.5 kmh 29.22 in989.5 mb - 0.00 in0.0 mm 0.00 in0.0 mm
07:20 AM 44.3°F6.8°C 41.0°F5.0°C 88% 4.6 mph WSW7.4 kmh WSW 6.9 mph11.1 kmh 29.22 in989.5 mb - 0.00 in0.0 mm 0.00 in0.0 mm
07:30 AM 44.2°F6.8°C 40.9°F4.9°C 88% Calm Calm -- 29.22 in989.5 mb - 0.00 in0.0 mm 0.00 in0.0 mm
07:40 AM 44.3°F6.8°C 41.0°F5.0°C 88% 3.5 mph W5.6 kmh W 11.5 mph18.5 kmh 29.21 in989.2 mb - 0.00 in0.0 mm 0.00 in0.0 mm
07:50 AM 44.5°F6.9°C 41.2°F5.1°C 88% 5.8 mph W9.3 kmh W 11.5 mph18.5 kmh 29.22 in989.5 mb - 0.00 in0.0 mm 0.00 in0.0 mm
08:00 AM 44.6°F7.0°C 41.3°F5.2°C 88% 4.6 mph W7.4 kmh W 8.1 mph13.0 kmh 29.22 in989.5 mb - 0.00 in0.0 mm 0.00 in0.0 mm
08:10 AM 44.6°F7.0°C 41.6°F5.3°C 89% 4.6 mph W7.4 kmh W 8.1 mph13.0 kmh 29.22 in989.5 mb - 0.00 in0.0 mm 0.00 in0.0 mm
08:20 AM 44.7°F7.1°C 41.4°F5.2°C 88% 2.3 mph W3.7 kmh W 6.9 mph11.1 kmh 29.22 in989.5 mb - 0.00 in0.0 mm 0.00 in0.0 mm
08:30 AM 44.8°F7.1°C 41.5°F5.3°C 88% Calm Calm 4.6 mph7.4 kmh 29.22 in989.5 mb - 0.00 in0.0 mm 0.00 in0.0 mm
08:40 AM 44.8°F7.1°C 41.5°F5.3°C 88% 1.2 mph WNW1.9 kmh WNW 4.6 mph7.4 kmh 29.22 in989.5 mb - 0.00 in0.0 mm 0.00 in0.0 mm
08:50 AM 44.8°F7.1°C 41.5°F5.3°C 88% 1.2 mph W1.9 kmh W 2.3 mph3.7 kmh 29.22 in989.5 mb - 0.00 in0.0 mm 0.00 in0.0 mm
09:00 AM 44.6°F7.0°C 41.2°F5.1°C 88% Calm Calm -- 29.22 in989.5 mb - 0.00 in0.0 mm 0.00 in0.0 mm
09:10 AM 44.3°F6.8°C 41.3°F5.2°C 89% Calm Calm -- 29.22 in989.5 mb - 0.00 in0.0 mm 0.00 in0.0 mm
09:20 AM 44.3°F6.8°C 41.3°F5.2°C 89% Calm Calm -- 29.22 in989.5 mb - 0.00 in0.0 mm 0.00 in0.0 mm
09:30 AM 44.4°F6.9°C 41.7°F5.4°C 90% Calm Calm -- 29.22 in989.5 mb - 0.00 in0.0 mm 0.00 in0.0 mm
09:40 AM 44.9°F7.2°C 42.1°F5.6°C 90% Calm Calm -- 29.21 in989.2 mb - 0.00 in0.0 mm 0.00 in0.0 mm
09:50 AM 45.6°F7.6°C 43.1°F6.2°C 91% Calm Calm -- 29.21 in989.2 mb - 0.00 in0.0 mm 0.00 in0.0 mm
10:00 AM 46.5°F8.1°C 44.0°F6.7°C 91% 4.6 mph WSW7.4 kmh WSW 11.5 mph18.5 kmh 29.20 in988.8 mb - 0.00 in0.0 mm 0.00 in0.0 mm
10:10 AM 47.4°F8.6°C 44.9°F7.2°C 91% 11.5 mph W18.5 kmh W 21.9 mph35.2 kmh 29.21 in989.2 mb - 0.01 in0.3 mm 0.01 in0.3 mm
10:20 AM 45.9°F7.7°C 43.4°F6.3°C 91% 11.5 mph W18.5 kmh W 16.1 mph25.9 kmh 29.21 in989.2 mb - 0.00 in0.0 mm 0.01 in0.3 mm
10:30 AM 45.2°F7.3°C 43.0°F6.1°C 92% 4.6 mph NW7.4 kmh NW 11.5 mph18.5 kmh 29.21 in989.2 mb - 0.02 in0.5 mm 0.03 in0.8 mm
10:40 AM 45.7°F7.6°C 43.8°F6.6°C 93% 4.6 mph NW7.4 kmh NW 13.8 mph22.2 kmh 29.20 in988.8 mb - 0.00 in0.0 mm 0.03 in0.8 mm
10:50 AM 46.0°F7.8°C 44.1°F6.7°C 93% 6.9 mph WSW11.1 kmh WSW 11.5 mph18.5 kmh 29.20 in988.8 mb - 0.00 in0.0 mm 0.03 in0.8 mm
11:00 AM 46.2°F7.9°C 44.3°F6.8°C 93% 6.9 mph WSW11.1 kmh WSW 11.5 mph18.5 kmh 29.20 in988.8 mb - 0.00 in0.0 mm 0.03 in0.8 mm
11:10 AM 46.6°F8.1°C 44.4°F6.9°C 92% 6.9 mph WNW11.1 kmh WNW 16.1 mph25.9 kmh 29.19 in988.5 mb - 0.00 in0.0 mm 0.03 in0.8 mm
11:20 AM 47.4°F8.6°C 45.2°F7.3°C 92% 5.8 mph WSW9.3 kmh WSW 13.8 mph22.2 kmh 29.19 in988.5 mb - 0.00 in0.0 mm 0.03 in0.8 mm
11:30 AM 47.7°F8.7°C 45.2°F7.3°C 91% 8.1 mph W13.0 kmh W 12.7 mph20.4 kmh 29.19 in988.5 mb - 0.00 in0.0 mm 0.03 in0.8 mm
11:40 AM 48.2°F9.0°C 45.4°F7.4°C 90% 6.9 mph WSW11.1 kmh WSW 11.5 mph18.5 kmh 29.18 in988.1 mb - 0.00 in0.0 mm 0.03 in0.8 mm
11:50 AM 48.6°F9.2°C 45.8°F7.7°C 90% 9.2 mph WNW14.8 kmh WNW 20.7 mph33.3 kmh 29.18 in988.1 mb - 0.00 in0.0 mm 0.03 in0.8 mm
12:00 PM 48.6°F9.2°C 45.8°F7.7°C 90% 5.8 mph WSW9.3 kmh WSW 11.5 mph18.5 kmh 29.18 in988.1 mb - 0.00 in0.0 mm 0.03 in0.8 mm
12:10 PM 49.1°F9.5°C 46.5°F8.1°C 91% 9.2 mph W14.8 kmh W 16.1 mph25.9 kmh 29.17 in987.8 mb - 0.00 in0.0 mm 0.03 in0.8 mm
12:20 PM 49.2°F9.6°C 46.1°F7.8°C 89% 9.2 mph WSW14.8 kmh WSW 16.1 mph25.9 kmh 29.16 in987.5 mb - 0.00 in0.0 mm 0.03 in0.8 mm
12:30 PM 49.4°F9.7°C 46.0°F7.8°C 88% 8.1 mph SW13.0 kmh SW 15.0 mph24.1 kmh 29.16 in987.5 mb - 0.00 in0.0 mm 0.03 in0.8 mm
12:40 PM 49.5°F9.7°C 46.1°F7.8°C 88% 8.1 mph WSW13.0 kmh WSW 15.0 mph24.1 kmh 29.16 in987.5 mb - 0.00 in0.0 mm 0.03 in0.8 mm
12:50 PM 49.3°F9.6°C 45.9°F7.7°C 88% 12.7 mph WSW20.4 kmh WSW 19.6 mph31.5 kmh 29.15 in987.1 mb - 0.00 in0.0 mm 0.03 in0.8 mm
01:00 PM 48.9°F9.4°C 45.8°F7.7°C 89% 8.1 mph SW13.0 kmh SW 13.8 mph22.2 kmh 29.15 in987.1 mb - 0.00 in0.0 mm 0.03 in0.8 mm
01:10 PM 48.5°F9.2°C 45.4°F7.4°C 89% 13.8 mph WSW22.2 kmh WSW 20.7 mph33.3 kmh 29.15 in987.1 mb - 0.00 in0.0 mm 0.03 in0.8 mm
01:20 PM 47.1°F8.4°C 44.3°F6.8°C 90% 6.9 mph W11.1 kmh W 12.7 mph20.4 kmh 29.15 in987.1 mb - 0.00 in0.0 mm 0.03 in0.8 mm
01:30 PM 45.6°F7.6°C 43.7°F6.5°C 93% 8.1 mph W13.0 kmh W 11.5 mph18.5 kmh 29.14 in986.8 mb - 0.01 in0.3 mm 0.04 in1.0 mm
01:40 PM 46.0°F7.8°C 43.5°F6.4°C 91% 5.8 mph WSW9.3 kmh WSW 12.7 mph20.4 kmh 29.14 in986.8 mb - 0.00 in0.0 mm 0.04 in1.0 mm
01:50 PM 46.5°F8.1°C 43.4°F6.3°C 89% 6.9 mph WSW11.1 kmh WSW 11.5 mph18.5 kmh 29.14 in986.8 mb - 0.00 in0.0 mm 0.04 in1.0 mm
02:00 PM 46.7°F8.2°C 43.6°F6.4°C 89% 5.8 mph W9.3 kmh W 8.1 mph13.0 kmh 29.14 in986.8 mb - 0.00 in0.0 mm 0.04 in1.0 mm
02:10 PM 46.4°F8.0°C 43.3°F6.3°C 89% 6.9 mph W11.1 kmh W 18.4 mph29.6 kmh 29.14 in986.8 mb - 0.00 in0.0 mm 0.04 in1.0 mm
02:20 PM 46.1°F7.8°C 43.0°F6.1°C 89% 8.1 mph W13.0 kmh W 13.8 mph22.2 kmh 29.14 in986.8 mb - 0.00 in0.0 mm 0.04 in1.0 mm
02:30 PM 45.5°F7.5°C 42.7°F5.9°C 90% 6.9 mph WNW11.1 kmh WNW 9.2 mph14.8 kmh 29.15 in987.1 mb - 0.00 in0.0 mm 0.04 in1.0 mm
02:40 PM 43.1°F6.2°C 40.4°F4.7°C 90% 8.1 mph WNW13.0 kmh WNW 13.8 mph22.2 kmh 29.16 in987.5 mb - 0.02 in0.5 mm 0.06 in1.5 mm
02:50 PM 42.3°F5.7°C 40.1°F4.5°C 92% 2.3 mph WNW3.7 kmh WNW 6.9 mph11.1 kmh 29.15 in987.1 mb - 0.01 in0.3 mm 0.07 in1.8 mm
03:00 PM 42.0°F5.6°C 40.1°F4.5°C 93% Calm Calm -- 29.15 in987.1 mb - 0.00 in0.0 mm 0.07 in1.8 mm
03:10 PM 42.1°F5.6°C 40.5°F4.7°C 94% Calm Calm -- 29.16 in987.5 mb - 0.00 in0.0 mm 0.07 in1.8 mm
03:20 PM 42.1°F5.6°C 40.5°F4.7°C 94% Calm Calm -- 29.16 in987.5 mb - 0.00 in0.0 mm 0.07 in1.8 mm
03:30 PM 42.1°F5.6°C 40.5°F4.7°C 94% 1.2 mph W1.9 kmh W -- 29.17 in987.8 mb - 0.00 in0.0 mm 0.07 in1.8 mm
03:40 PM 42.5°F5.8°C 40.9°F4.9°C 94% 5.8 mph WNW9.3 kmh WNW 9.2 mph14.8 kmh 29.17 in987.8 mb - 0.01 in0.3 mm 0.08 in2.0 mm
03:50 PM 42.9°F6.1°C 41.0°F5.0°C 93% 4.6 mph W7.4 kmh W 8.1 mph13.0 kmh 29.18 in988.1 mb - 0.00 in0.0 mm 0.08 in2.0 mm
04:00 PM 42.8°F6.0°C 40.9°F4.9°C 93% 5.8 mph W9.3 kmh W 8.1 mph13.0 kmh 29.18 in988.1 mb - 0.00 in0.0 mm 0.08 in2.0 mm
04:10 PM 42.9°F6.1°C 40.7°F4.8°C 92% 4.6 mph W7.4 kmh W 8.1 mph13.0 kmh 29.19 in988.5 mb - 0.00 in0.0 mm 0.08 in2.0 mm
04:20 PM 43.3°F6.3°C 40.8°F4.9°C 91% 5.8 mph W9.3 kmh W 8.1 mph13.0 kmh 29.20 in988.8 mb - 0.00 in0.0 mm 0.08 in2.0 mm
04:30 PM 43.7°F6.5°C 41.0°F5.0°C 90% 8.1 mph WNW13.0 kmh WNW 11.5 mph18.5 kmh 29.21 in989.2 mb - 0.00 in0.0 mm 0.08 in2.0 mm
04:40 PM 43.9°F6.6°C 41.2°F5.1°C 90% 4.6 mph W7.4 kmh W 6.9 mph11.1 kmh 29.21 in989.2 mb - 0.00 in0.0 mm 0.08 in2.0 mm
04:50 PM 44.1°F6.7°C 41.1°F5.1°C 89% 2.3 mph WNW3.7 kmh WNW 8.1 mph13.0 kmh 29.22 in989.5 mb - 0.00 in0.0 mm 0.08 in2.0 mm
05:00 PM 44.1°F6.7°C 41.1°F5.1°C 89% 8.1 mph WNW13.0 kmh WNW 15.0 mph24.1 kmh 29.22 in989.5 mb - 0.00 in0.0 mm 0.08 in2.0 mm
05:10 PM 44.0°F6.7°C 41.0°F5.0°C 89% 6.9 mph W11.1 kmh W 12.7 mph20.4 kmh 29.23 in989.8 mb - 0.00 in0.0 mm 0.08 in2.0 mm
05:20 PM 44.1°F6.7°C 40.8°F4.9°C 88% 5.8 mph WNW9.3 kmh WNW 12.7 mph20.4 kmh 29.24 in990.2 mb - 0.00 in0.0 mm 0.08 in2.0 mm
05:30 PM 43.9°F6.6°C 40.6°F4.8°C 88% 6.9 mph WNW11.1 kmh WNW 12.7 mph20.4 kmh 29.25 in990.5 mb - 0.00 in0.0 mm 0.08 in2.0 mm
05:40 PM 43.9°F6.6°C 40.2°F4.6°C 87% 8.1 mph W13.0 kmh W 12.7 mph20.4 kmh 29.25 in990.5 mb - 0.00 in0.0 mm 0.08 in2.0 mm
05:50 PM 43.7°F6.5°C 40.1°F4.5°C 87% 5.8 mph WNW9.3 kmh WNW 12.7 mph20.4 kmh 29.26 in990.9 mb - 0.00 in0.0 mm 0.08 in2.0 mm
06:00 PM 43.6°F6.4°C 40.3°F4.6°C 88% 5.8 mph WNW9.3 kmh WNW 12.7 mph20.4 kmh 29.27 in991.2 mb - 0.00 in0.0 mm 0.08 in2.0 mm
06:10 PM 43.8°F6.6°C 40.2°F4.6°C 87% 8.1 mph WNW13.0 kmh WNW 16.1 mph25.9 kmh 29.28 in991.5 mb - 0.00 in0.0 mm 0.08 in2.0 mm
06:20 PM 43.7°F6.5°C 40.1°F4.5°C 87% 6.9 mph WNW11.1 kmh WNW 11.5 mph18.5 kmh 29.29 in991.9 mb - 0.00 in0.0 mm 0.08 in2.0 mm
06:30 PM 43.4°F6.3°C 39.8°F4.3°C 87% 5.8 mph WNW9.3 kmh WNW 11.5 mph18.5 kmh 29.30 in992.2 mb - 0.00 in0.0 mm 0.08 in2.0 mm
06:40 PM 43.0°F6.1°C 39.7°F4.3°C 88% 5.8 mph WNW9.3 kmh WNW 9.2 mph14.8 kmh 29.30 in992.2 mb - 0.00 in0.0 mm 0.08 in2.0 mm
06:50 PM 42.9°F6.1°C 39.6°F4.2°C 88% 6.9 mph W11.1 kmh W 9.2 mph14.8 kmh 29.31 in992.6 mb - 0.00 in0.0 mm 0.08 in2.0 mm
07:00 PM 43.2°F6.2°C 39.9°F4.4°C 88% 8.1 mph W13.0 kmh W 11.5 mph18.5 kmh 29.32 in992.9 mb - 0.00 in0.0 mm 0.08 in2.0 mm
07:10 PM 43.3°F6.3°C 39.7°F4.3°C 87% 8.1 mph WNW13.0 kmh WNW 12.7 mph20.4 kmh 29.32 in992.9 mb - 0.00 in0.0 mm 0.08 in2.0 mm
07:20 PM 43.1°F6.2°C 39.5°F4.2°C 87% 6.9 mph W11.1 kmh W 9.2 mph14.8 kmh 29.33 in993.2 mb - 0.00 in0.0 mm 0.08 in2.0 mm
07:30 PM 43.0°F6.1°C 39.4°F4.1°C 87% 5.8 mph W9.3 kmh W 9.2 mph14.8 kmh 29.34 in993.6 mb - 0.00 in0.0 mm 0.08 in2.0 mm
07:40 PM 42.7°F5.9°C 39.4°F4.1°C 88% 4.6 mph W7.4 kmh W 5.8 mph9.3 kmh 29.35 in993.9 mb - 0.00 in0.0 mm 0.08 in2.0 mm
07:50 PM 42.2°F5.7°C 39.2°F4.0°C 89% 2.3 mph WNW3.7 kmh WNW 9.2 mph14.8 kmh 29.35 in993.9 mb - 0.00 in0.0 mm 0.08 in2.0 mm
08:00 PM 42.0°F5.6°C 39.3°F4.1°C 90% 4.6 mph WNW7.4 kmh WNW 9.2 mph14.8 kmh 29.35 in993.9 mb - 0.00 in0.0 mm 0.08 in2.0 mm
08:10 PM 42.2°F5.7°C 38.9°F3.8°C 88% 5.8 mph WSW9.3 kmh WSW 12.7 mph20.4 kmh 29.35 in993.9 mb - 0.00 in0.0 mm 0.08 in2.0 mm
08:20 PM 42.4°F5.8°C 38.8°F3.8°C 87% 6.9 mph W11.1 kmh W 11.5 mph18.5 kmh 29.35 in993.9 mb - 0.00 in0.0 mm 0.08 in2.0 mm
08:30 PM 42.2°F5.7°C 38.9°F3.8°C 88% 5.8 mph WSW9.3 kmh WSW 8.1 mph13.0 kmh 29.35 in993.9 mb - 0.00 in0.0 mm 0.08 in2.0 mm
08:40 PM 42.1°F5.6°C 38.8°F3.8°C 88% 5.8 mph WSW9.3 kmh WSW 12.7 mph20.4 kmh 29.36 in994.2 mb - 0.00 in0.0 mm 0.08 in2.0 mm
08:50 PM 42.1°F5.6°C 38.8°F3.8°C 88% 5.8 mph WSW9.3 kmh WSW 11.5 mph18.5 kmh 29.37 in994.6 mb - 0.00 in0.0 mm 0.08 in2.0 mm
09:00 PM 41.7°F5.4°C 38.4°F3.6°C 88% 4.6 mph SW7.4 kmh SW 6.9 mph11.1 kmh 29.37 in994.6 mb - 0.00 in0.0 mm 0.08 in2.0 mm
09:10 PM 41.3°F5.2°C 38.3°F3.5°C 89% 1.2 mph WNW1.9 kmh WNW 5.8 mph9.3 kmh 29.37 in994.6 mb - 0.00 in0.0 mm 0.08 in2.0 mm
09:20 PM 40.6°F4.8°C 37.6°F3.1°C 89% 1.2 mph WNW1.9 kmh WNW 4.6 mph7.4 kmh 29.37 in994.6 mb - 0.00 in0.0 mm 0.08 in2.0 mm
09:30 PM 40.4°F4.7°C 37.7°F3.2°C 90% 3.5 mph WNW5.6 kmh WNW 8.1 mph13.0 kmh 29.38 in994.9 mb - 0.00 in0.0 mm 0.08 in2.0 mm
09:40 PM 40.6°F4.8°C 37.9°F3.3°C 90% 4.6 mph WSW7.4 kmh WSW 11.5 mph18.5 kmh 29.37 in994.6 mb - 0.00 in0.0 mm 0.08 in2.0 mm
09:50 PM 40.8°F4.9°C 38.1°F3.4°C 90% 5.8 mph WSW9.3 kmh WSW 11.5 mph18.5 kmh 29.38 in994.9 mb - 0.00 in0.0 mm 0.08 in2.0 mm
10:00 PM 40.9°F4.9°C 38.2°F3.4°C 90% 6.9 mph W11.1 kmh W 11.5 mph18.5 kmh 29.38 in994.9 mb - 0.00 in0.0 mm 0.08 in2.0 mm
10:10 PM 41.1°F5.1°C 38.4°F3.6°C 90% 5.8 mph W9.3 kmh W 8.1 mph13.0 kmh 29.39 in995.3 mb - 0.00 in0.0 mm 0.08 in2.0 mm
10:20 PM 41.5°F5.3°C 38.5°F3.6°C 89% 6.9 mph W11.1 kmh W 8.1 mph13.0 kmh 29.40 in995.6 mb - 0.00 in0.0 mm 0.08 in2.0 mm
10:30 PM 41.3°F5.2°C 38.3°F3.5°C 89% 5.8 mph W9.3 kmh W 12.7 mph20.4 kmh 29.39 in995.3 mb - 0.00 in0.0 mm 0.08 in2.0 mm
10:40 PM 41.0°F5.0°C 38.0°F3.3°C 89% 8.1 mph W13.0 kmh W 12.7 mph20.4 kmh 29.39 in995.3 mb - 0.00 in0.0 mm 0.08 in2.0 mm
10:50 PM 40.6°F4.8°C 37.9°F3.3°C 90% 4.6 mph WNW7.4 kmh WNW 8.1 mph13.0 kmh 29.39 in995.3 mb - 0.00 in0.0 mm 0.08 in2.0 mm
11:00 PM 40.3°F4.6°C 37.9°F3.3°C 91% 4.6 mph SW7.4 kmh SW 8.1 mph13.0 kmh 29.40 in995.6 mb - 0.00 in0.0 mm 0.08 in2.0 mm
11:10 PM 40.3°F4.6°C 37.9°F3.3°C 91% 5.8 mph WNW9.3 kmh WNW 9.2 mph14.8 kmh 29.41 in995.9 mb - 0.00 in0.0 mm 0.08 in2.0 mm
11:20 PM 40.4°F4.7°C 38.0°F3.3°C 91% 5.8 mph W9.3 kmh W 11.5 mph18.5 kmh 29.40 in995.6 mb - 0.00 in0.0 mm 0.08 in2.0 mm
11:30 PM 40.1°F4.5°C 37.7°F3.2°C 91% 4.6 mph W7.4 kmh W 6.9 mph11.1 kmh 29.40 in995.6 mb - 0.00 in0.0 mm 0.08 in2.0 mm
11:40 PM 40.0°F4.4°C 37.9°F3.3°C 92% 5.8 mph W9.3 kmh W 9.2 mph14.8 kmh 29.41 in995.9 mb - 0.00 in0.0 mm 0.08 in2.0 mm
11:50 PM 40.1°F4.5°C 38.0°F3.3°C 92% 4.6 mph W7.4 kmh W 8.1 mph13.0 kmh 29.41 in995.9 mb - 0.00 in0.0 mm 0.08 in2.0 mm